sensor_id;sensor_type;location;lat;lon;timestamp;pressure;altitude;pressure_sealevel;temperature;humidity
64876;BME280;51369;49.862;9.908;2023-09-19T00:00:43;97769.38;;;18.33;72.79
64876;BME280;51369;49.862;9.908;2023-09-19T00:03:09;97772.22;;;18.32;73.02
64876;BME280;51369;49.862;9.908;2023-09-19T00:05:37;97775.09;;;18.30;73.74
64876;BME280;51369;49.862;9.908;2023-09-19T00:08:08;97774.47;;;18.27;73.69
64876;BME280;51369;49.862;9.908;2023-09-19T00:10:33;97779.19;;;18.25;74.02
64876;BME280;51369;49.862;9.908;2023-09-19T00:13:03;97783.91;;;18.23;74.48
64876;BME280;51369;49.862;9.908;2023-09-19T00:15:40;97791.63;;;18.17;74.41
64876;BME280;51369;49.862;9.908;2023-09-19T00:18:07;97785.44;;;18.15;75.10
64876;BME280;51369;49.862;9.908;2023-09-19T00:20:35;97780.97;;;18.14;74.82
64876;BME280;51369;49.862;9.908;2023-09-19T00:23:01;97792.25;;;18.10;75.42
64876;BME280;51369;49.862;9.908;2023-09-19T00:25:35;97795.13;;;18.08;75.19
64876;BME280;51369;49.862;9.908;2023-09-19T00:28:01;97795.13;;;18.08;75.14
64876;BME280;51369;49.862;9.908;2023-09-19T00:30:26;97798.97;;;18.06;75.18
64876;BME280;51369;49.862;9.908;2023-09-19T00:32:52;97797.13;;;18.06;75.43
64876;BME280;51369;49.862;9.908;2023-09-19T00:35:18;97796.25;;;18.06;75.54
64876;BME280;51369;49.862;9.908;2023-09-19T00:37:50;97788.19;;;18.04;75.31
64876;BME280;51369;49.862;9.908;2023-09-19T00:40:16;97794.63;;;18.03;75.33
64876;BME280;51369;49.862;9.908;2023-09-19T00:42:46;97800.22;;;18.02;75.36
64876;BME280;51369;49.862;9.908;2023-09-19T00:45:14;97791.16;;;18.01;75.58
64876;BME280;51369;49.862;9.908;2023-09-19T00:47:49;97798.59;;;17.99;75.45
64876;BME280;51369;49.862;9.908;2023-09-19T00:50:22;97797.75;;;17.99;75.59
64876;BME280;51369;49.862;9.908;2023-09-19T00:52:48;97804.81;;;18.01;76.06
64876;BME280;51369;49.862;9.908;2023-09-19T00:55:15;97806.69;;;18.01;76.45
64876;BME280;51369;49.862;9.908;2023-09-19T00:57:41;97816.00;;;17.98;76.01
64876;BME280;51369;49.862;9.908;2023-09-19T01:00:08;97812.41;;;17.98;75.83
64876;BME280;51369;49.862;9.908;2023-09-19T01:02:37;97809.91;;;17.95;75.92
64876;BME280;51369;49.862;9.908;2023-09-19T01:05:03;97811.66;;;17.96;76.36
64876;BME280;51369;49.862;9.908;2023-09-19T01:07:32;97818.97;;;17.95;75.47
64876;BME280;51369;49.862;9.908;2023-09-19T01:10:03;97823.56;;;17.95;75.53
64876;BME280;51369;49.862;9.908;2023-09-19T01:12:41;97826.28;;;17.95;74.77
64876;BME280;51369;49.862;9.908;2023-09-19T01:17:50;97830.03;;;17.94;74.56
64876;BME280;51369;49.862;9.908;2023-09-19T01:20:39;97838.22;;;17.94;74.74
64876;BME280;51369;49.862;9.908;2023-09-19T01:26:07;97830.78;;;17.96;74.41
64876;BME280;51369;49.862;9.908;2023-09-19T01:28:51;97828.91;;;17.96;73.98
64876;BME280;51369;49.862;9.908;2023-09-19T01:31:19;97823.44;;;17.96;74.77
64876;BME280;51369;49.862;9.908;2023-09-19T01:34:00;97833.63;;;17.94;75.23
64876;BME280;51369;49.862;9.908;2023-09-19T01:36:31;97832.50;;;17.97;75.46
64876;BME280;51369;49.862;9.908;2023-09-19T01:39:00;97828.03;;;17.96;75.50
64876;BME280;51369;49.862;9.908;2023-09-19T01:44:25;97841.94;;;17.93;75.52
64876;BME280;51369;49.862;9.908;2023-09-19T01:46:58;97844.78;;;17.91;76.14
64876;BME280;51369;49.862;9.908;2023-09-19T01:49:42;97839.47;;;17.89;76.06
64876;BME280;51369;49.862;9.908;2023-09-19T01:52:14;97841.31;;;17.89;76.21
64876;BME280;51369;49.862;9.908;2023-09-19T01:54:57;97844.16;;;17.87;76.83
64876;BME280;51369;49.862;9.908;2023-09-19T01:57:35;97858.81;;;17.86;76.89
64876;BME280;51369;49.862;9.908;2023-09-19T02:00:06;97854.22;;;17.87;76.91
64876;BME280;51369;49.862;9.908;2023-09-19T02:02:40;97851.50;;;17.87;77.62
64876;BME280;51369;49.862;9.908;2023-09-19T02:05:07;97858.81;;;17.86;76.98
64876;BME280;51369;49.862;9.908;2023-09-19T02:07:33;97861.69;;;17.85;77.06
64876;BME280;51369;49.862;9.908;2023-09-19T02:09:59;97867.25;;;17.83;77.15
64876;BME280;51369;49.862;9.908;2023-09-19T02:12:25;97866.38;;;17.83;77.34
64876;BME280;51369;49.862;9.908;2023-09-19T02:14:51;97859.19;;;17.82;77.41
64876;BME280;51369;49.862;9.908;2023-09-19T02:17:16;97864.53;;;17.83;77.03
64876;BME280;51369;49.862;9.908;2023-09-19T02:19:42;97863.53;;;17.84;77.38
64876;BME280;51369;49.862;9.908;2023-09-19T02:22:07;97876.06;;;17.87;77.58
64876;BME280;51369;49.862;9.908;2023-09-19T02:24:36;97865.91;;;17.89;77.35
64876;BME280;51369;49.862;9.908;2023-09-19T02:27:02;97872.09;;;17.91;78.12
64876;BME280;51369;49.862;9.908;2023-09-19T02:29:30;97867.38;;;17.93;78.59
64876;BME280;51369;49.862;9.908;2023-09-19T02:31:55;97879.94;;;17.96;78.60
64876;BME280;51369;49.862;9.908;2023-09-19T02:34:22;97879.81;;;17.97;78.56
64876;BME280;51369;49.862;9.908;2023-09-19T02:36:48;97871.63;;;17.97;78.71
64876;BME280;51369;49.862;9.908;2023-09-19T02:39:15;97881.53;;;17.98;79.02
64876;BME280;51369;49.862;9.908;2023-09-19T02:41:40;97881.53;;;17.98;79.17
64876;BME280;51369;49.862;9.908;2023-09-19T02:44:07;97878.81;;;17.98;78.50
64876;BME280;51369;49.862;9.908;2023-09-19T02:46:33;97886.00;;;17.99;78.89
64876;BME280;51369;49.862;9.908;2023-09-19T02:48:59;97880.56;;;17.99;78.64
64876;BME280;51369;49.862;9.908;2023-09-19T02:51:24;97887.75;;;18.00;79.20
64876;BME280;51369;49.862;9.908;2023-09-19T02:53:52;97890.38;;;18.02;78.38
64876;BME280;51369;49.862;9.908;2023-09-19T02:56:18;97885.78;;;18.02;79.01
64876;BME280;51369;49.862;9.908;2023-09-19T02:58:44;97886.50;;;18.04;79.43
64876;BME280;51369;49.862;9.908;2023-09-19T03:01:10;97882.03;;;18.03;79.75
64876;BME280;51369;49.862;9.908;2023-09-19T03:03:38;97892.97;;;18.03;79.90
64876;BME280;51369;49.862;9.908;2023-09-19T03:06:07;97890.38;;;18.02;79.67
64876;BME280;51369;49.862;9.908;2023-09-19T03:08:35;97890.50;;;18.00;80.75
64876;BME280;51369;49.862;9.908;2023-09-19T03:11:05;97893.22;;;18.00;81.23
64876;BME280;51369;49.862;9.908;2023-09-19T03:13:32;97901.41;;;18.00;81.13
64876;BME280;51369;49.862;9.908;2023-09-19T03:15:58;97900.66;;;17.98;81.45
64876;BME280;51369;49.862;9.908;2023-09-19T03:18:26;97899.78;;;17.98;82.13
64876;BME280;51369;49.862;9.908;2023-09-19T03:20:55;97898.94;;;17.97;82.10
64876;BME280;51369;49.862;9.908;2023-09-19T03:23:22;97905.25;;;17.98;82.54
64876;BME280;51369;49.862;9.908;2023-09-19T03:25:47;97908.13;;;17.96;83.17
64876;BME280;51369;49.862;9.908;2023-09-19T03:28:13;97903.53;;;17.97;82.97
64876;BME280;51369;49.862;9.908;2023-09-19T03:30:41;97910.84;;;17.96;83.18
64876;BME280;51369;49.862;9.908;2023-09-19T03:33:07;97909.84;;;17.97;83.23
64876;BME280;51369;49.862;9.908;2023-09-19T03:35:34;97908.13;;;17.96;83.29
64876;BME280;51369;49.862;9.908;2023-09-19T03:38:01;97916.19;;;17.98;82.63
64876;BME280;51369;49.862;9.908;2023-09-19T03:40:26;97915.31;;;17.97;82.94
64876;BME280;51369;49.862;9.908;2023-09-19T03:42:51;97917.06;;;17.98;82.68
64876;BME280;51369;49.862;9.908;2023-09-19T03:45:17;97910.59;;;17.99;82.17
64876;BME280;51369;49.862;9.908;2023-09-19T03:47:47;97919.66;;;18.00;82.92
64876;BME280;51369;49.862;9.908;2023-09-19T03:50:13;97919.66;;;18.00;82.60
64876;BME280;51369;49.862;9.908;2023-09-19T03:52:45;97914.19;;;18.00;83.69
64876;BME280;51369;49.862;9.908;2023-09-19T03:55:11;97907.75;;;18.01;83.60
64876;BME280;51369;49.862;9.908;2023-09-19T03:57:38;97911.47;;;18.00;83.22
64876;BME280;51369;49.862;9.908;2023-09-19T04:00:04;97922.41;;;18.00;83.26
64876;BME280;51369;49.862;9.908;2023-09-19T04:02:38;97917.06;;;17.98;83.84
64876;BME280;51369;49.862;9.908;2023-09-19T04:05:05;97917.06;;;17.98;83.68
64876;BME280;51369;49.862;9.908;2023-09-19T04:07:30;97917.06;;;17.98;83.23
64876;BME280;51369;49.862;9.908;2023-09-19T04:09:56;97919.78;;;17.98;82.65
64876;BME280;51369;49.862;9.908;2023-09-19T04:12:21;97918.91;;;17.98;82.75
64876;BME280;51369;49.862;9.908;2023-09-19T04:14:47;97912.59;;;17.97;81.90
64876;BME280;51369;49.862;9.908;2023-09-19T04:17:13;97919.03;;;17.96;81.78
64876;BME280;51369;49.862;9.908;2023-09-19T04:19:39;97914.56;;;17.95;81.70
64876;BME280;51369;49.862;9.908;2023-09-19T04:22:06;97922.00;;;17.93;81.34
64876;BME280;51369;49.862;9.908;2023-09-19T04:24:31;97927.59;;;17.92;81.31
64876;BME280;51369;49.862;9.908;2023-09-19T04:26:58;97935.91;;;17.90;81.34
64876;BME280;51369;49.862;9.908;2023-09-19T04:29:24;97936.91;;;17.89;80.90
64876;BME280;51369;49.862;9.908;2023-09-19T04:31:51;97940.63;;;17.88;80.68
64876;BME280;51369;49.862;9.908;2023-09-19T04:34:17;97931.69;;;17.86;80.77
64876;BME280;51369;49.862;9.908;2023-09-19T04:36:43;97942.84;;;17.83;80.28
64876;BME280;51369;49.862;9.908;2023-09-19T04:39:08;97941.34;;;17.79;80.03
64876;BME280;51369;49.862;9.908;2023-09-19T04:41:35;97946.94;;;17.77;79.10
64876;BME280;51369;49.862;9.908;2023-09-19T04:44:05;97950.91;;;17.73;78.80
64876;BME280;51369;49.862;9.908;2023-09-19T04:46:30;97952.88;;;17.71;79.10
64876;BME280;51369;49.862;9.908;2023-09-19T04:48:55;97955.84;;;17.68;78.79
64876;BME280;51369;49.862;9.908;2023-09-19T04:51:21;97949.63;;;17.66;79.52
64876;BME280;51369;49.862;9.908;2023-09-19T04:53:46;97951.59;;;17.64;79.46
64876;BME280;51369;49.862;9.908;2023-09-19T04:56:13;97955.41;;;17.62;79.92
64876;BME280;51369;49.862;9.908;2023-09-19T04:58:38;97971.06;;;17.60;79.68
64876;BME280;51369;49.862;9.908;2023-09-19T05:01:04;97965.72;;;17.58;80.19
64876;BME280;51369;49.862;9.908;2023-09-19T05:03:29;97974.88;;;17.57;80.35
64876;BME280;51369;49.862;9.908;2023-09-19T05:05:55;97971.53;;;17.53;79.77
64876;BME280;51369;49.862;9.908;2023-09-19T05:08:20;97965.31;;;17.51;79.45
64876;BME280;51369;49.862;9.908;2023-09-19T05:10:47;97972.75;;;17.49;79.57
64876;BME280;51369;49.862;9.908;2023-09-19T05:13:14;97979.19;;;17.48;79.44
64876;BME280;51369;49.862;9.908;2023-09-19T05:15:39;97981.06;;;17.48;79.67
64876;BME280;51369;49.862;9.908;2023-09-19T05:18:05;97985.66;;;17.47;79.44
64876;BME280;51369;49.862;9.908;2023-09-19T05:20:31;98002.03;;;17.47;79.41
64876;BME280;51369;49.862;9.908;2023-09-19T05:23:05;97989.47;;;17.45;79.37
64876;BME280;51369;49.862;9.908;2023-09-19T05:25:35;97996.78;;;17.44;78.13
64876;BME280;51369;49.862;9.908;2023-09-19T05:28:02;97995.81;;;17.45;78.96
64876;BME280;51369;49.862;9.908;2023-09-19T05:30:31;98002.25;;;17.44;79.25
64876;BME280;51369;49.862;9.908;2023-09-19T05:32:57;98010.44;;;17.44;78.86
64876;BME280;51369;49.862;9.908;2023-09-19T05:35:23;98011.19;;;17.46;78.06
64876;BME280;51369;49.862;9.908;2023-09-19T05:37:51;98011.19;;;17.46;78.95
64876;BME280;51369;49.862;9.908;2023-09-19T05:40:18;98008.34;;;17.48;79.06
64876;BME280;51369;49.862;9.908;2023-09-19T05:42:43;98010.97;;;17.49;79.73
64876;BME280;51369;49.862;9.908;2023-09-19T05:45:10;98020.03;;;17.50;80.10
64876;BME280;51369;49.862;9.908;2023-09-19T05:47:38;98021.88;;;17.49;79.33
64876;BME280;51369;49.862;9.908;2023-09-19T05:50:03;98022.63;;;17.51;79.65
64876;BME280;51369;49.862;9.908;2023-09-19T05:52:30;98021.41;;;17.55;79.20
64876;BME280;51369;49.862;9.908;2023-09-19T05:54:55;98029.13;;;17.62;79.34
64876;BME280;51369;49.862;9.908;2023-09-19T05:57:21;98033.41;;;17.66;78.67
64876;BME280;51369;49.862;9.908;2023-09-19T05:59:47;98032.94;;;17.72;79.27
64876;BME280;51369;49.862;9.908;2023-09-19T06:02:16;98037.03;;;17.77;78.74
64876;BME280;51369;49.862;9.908;2023-09-19T06:04:41;98037.56;;;17.82;79.16
64876;BME280;51369;49.862;9.908;2023-09-19T06:07:07;98029.25;;;17.84;79.39
64876;BME280;51369;49.862;9.908;2023-09-19T06:09:32;98041.91;;;17.85;79.36
64876;BME280;51369;49.862;9.908;2023-09-19T06:11:59;98037.09;;;17.88;79.25
64876;BME280;51369;49.862;9.908;2023-09-19T06:14:28;98034.97;;;17.92;79.61
64876;BME280;51369;49.862;9.908;2023-09-19T06:16:54;98034.50;;;17.98;79.96
64876;BME280;51369;49.862;9.908;2023-09-19T06:19:19;98033.28;;;18.02;80.17
64876;BME280;51369;49.862;9.908;2023-09-19T06:21:48;98033.78;;;18.07;79.88
64876;BME280;51369;49.862;9.908;2023-09-19T06:24:13;98035.03;;;18.14;79.67
64876;BME280;51369;49.862;9.908;2023-09-19T06:26:39;98041.78;;;18.21;79.51
64876;BME280;51369;49.862;9.908;2023-09-19T06:29:04;98040.53;;;18.26;79.28
64876;BME280;51369;49.862;9.908;2023-09-19T06:31:33;98033.97;;;18.28;79.80
64876;BME280;51369;49.862;9.908;2023-09-19T06:33:58;98039.44;;;18.28;79.47
64876;BME280;51369;49.862;9.908;2023-09-19T06:36:24;98039.44;;;18.28;79.43
64876;BME280;51369;49.862;9.908;2023-09-19T06:38:49;98039.44;;;18.28;79.37
64876;BME280;51369;49.862;9.908;2023-09-19T06:41:17;98042.16;;;18.28;79.40
64876;BME280;51369;49.862;9.908;2023-09-19T06:43:42;98054.94;;;18.28;78.24
64876;BME280;51369;49.862;9.908;2023-09-19T06:46:07;98050.47;;;18.27;78.22
64876;BME280;51369;49.862;9.908;2023-09-19T06:48:33;98053.22;;;18.27;77.93
64876;BME280;51369;49.862;9.908;2023-09-19T06:50:58;98054.94;;;18.28;78.27
64876;BME280;51369;49.862;9.908;2023-09-19T06:53:27;98055.81;;;18.28;77.57
64876;BME280;51369;49.862;9.908;2023-09-19T06:55:52;98068.50;;;18.29;77.46
64876;BME280;51369;49.862;9.908;2023-09-19T06:58:18;98071.97;;;18.31;76.38
64876;BME280;51369;49.862;9.908;2023-09-19T07:00:44;98071.63;;;18.36;75.70
64876;BME280;51369;49.862;9.908;2023-09-19T07:03:13;98073.75;;;18.43;75.65
64876;BME280;51369;49.862;9.908;2023-09-19T07:05:39;98085.81;;;18.52;76.22
64876;BME280;51369;49.862;9.908;2023-09-19T07:08:06;98096.13;;;18.60;74.83
64876;BME280;51369;49.862;9.908;2023-09-19T07:10:32;98091.09;;;18.66;74.23
64876;BME280;51369;49.862;9.908;2023-09-19T07:13:03;98098.78;;;18.72;73.89
64876;BME280;51369;49.862;9.908;2023-09-19T07:15:32;98086.63;;;18.76;72.82
64876;BME280;51369;49.862;9.908;2023-09-19T07:18:04;98086.38;;;18.79;71.46
64876;BME280;51369;49.862;9.908;2023-09-19T07:20:30;98089.72;;;18.83;72.32
64876;BME280;51369;49.862;9.908;2023-09-19T07:22:57;98096.94;;;18.84;70.37
64876;BME280;51369;49.862;9.908;2023-09-19T07:25:25;98093.94;;;18.87;71.29
64876;BME280;51369;49.862;9.908;2023-09-19T07:27:51;98098.94;;;18.93;71.26
64876;BME280;51369;49.862;9.908;2023-09-19T07:30:16;98105.78;;;18.99;72.06
64876;BME280;51369;49.862;9.908;2023-09-19T07:32:42;98117.22;;;19.04;71.56
64876;BME280;51369;49.862;9.908;2023-09-19T07:35:08;98116.69;;;19.10;69.96
64876;BME280;51369;49.862;9.908;2023-09-19T07:37:34;98132.72;;;19.14;69.31
64876;BME280;51369;49.862;9.908;2023-09-19T07:40:00;98126.00;;;19.18;69.80
64876;BME280;51369;49.862;9.908;2023-09-19T07:42:45;98122.91;;;19.23;68.04
64876;BME280;51369;49.862;9.908;2023-09-19T07:45:12;98142.06;;;19.23;68.16
64876;BME280;51369;49.862;9.908;2023-09-19T07:50:11;98140.69;;;19.29;68.11
64876;BME280;51369;49.862;9.908;2023-09-19T07:52:37;98144.03;;;19.32;67.39
64876;BME280;51369;49.862;9.908;2023-09-19T07:55:05;98146.41;;;19.37;68.21
64876;BME280;51369;49.862;9.908;2023-09-19T07:57:34;98152.25;;;19.43;68.57
64876;BME280;51369;49.862;9.908;2023-09-19T07:59:59;98162.69;;;19.49;68.54
64876;BME280;51369;49.862;9.908;2023-09-19T08:02:25;98151.25;;;19.56;67.57
64876;BME280;51369;49.862;9.908;2023-09-19T08:04:50;98166.56;;;19.58;67.07
64876;BME280;51369;49.862;9.908;2023-09-19T08:07:17;98168.19;;;19.61;67.46
64876;BME280;51369;49.862;9.908;2023-09-19T08:09:43;98161.72;;;19.62;66.42
64876;BME280;51369;49.862;9.908;2023-09-19T08:12:12;98176.91;;;19.66;65.65
64876;BME280;51369;49.862;9.908;2023-09-19T08:14:37;98178.63;;;19.67;66.08
64876;BME280;51369;49.862;9.908;2023-09-19T08:17:03;98186.72;;;19.68;65.31
64876;BME280;51369;49.862;9.908;2023-09-19T08:19:31;98183.72;;;19.71;65.09
64876;BME280;51369;49.862;9.908;2023-09-19T08:21:57;98187.47;;;19.70;65.16
64876;BME280;51369;49.862;9.908;2023-09-19T08:24:29;98189.81;;;19.75;65.76
64876;BME280;51369;49.862;9.908;2023-09-19T08:26:56;98187.56;;;19.80;65.09
64876;BME280;51369;49.862;9.908;2023-09-19T08:29:25;98182.97;;;19.80;64.71
64876;BME280;51369;49.862;9.908;2023-09-19T08:31:56;98185.31;;;19.85;64.29
64876;BME280;51369;49.862;9.908;2023-09-19T08:34:23;98176.97;;;19.87;64.09
64876;BME280;51369;49.862;9.908;2023-09-19T08:36:53;98190.06;;;19.83;63.54
64876;BME280;51369;49.862;9.908;2023-09-19T08:39:21;98178.09;;;19.84;64.95
64876;BME280;51369;49.862;9.908;2023-09-19T08:41:47;98192.41;;;19.88;65.10
64876;BME280;51369;49.862;9.908;2023-09-19T08:44:12;98193.91;;;19.92;64.29
64876;BME280;51369;49.862;9.908;2023-09-19T08:46:41;98202.00;;;19.93;64.68
64876;BME280;51369;49.862;9.908;2023-09-19T08:49:18;98201.00;;;19.94;64.65
64876;BME280;51369;49.862;9.908;2023-09-19T08:51:53;98200.00;;;19.95;63.91
64876;BME280;51369;49.862;9.908;2023-09-19T08:54:25;98195.13;;;19.99;63.47
64876;BME280;51369;49.862;9.908;2023-09-19T08:56:54;98198.34;;;20.04;63.51
64876;BME280;51369;49.862;9.908;2023-09-19T08:59:23;98199.84;;;20.08;62.56
64876;BME280;51369;49.862;9.908;2023-09-19T09:01:49;98194.09;;;20.11;61.95
64876;BME280;51369;49.862;9.908;2023-09-19T09:04:19;98198.44;;;20.13;61.56
64876;BME280;51369;49.862;9.908;2023-09-19T09:06:45;98200.94;;;20.17;62.22
64876;BME280;51369;49.862;9.908;2023-09-19T09:09:15;98200.53;;;20.21;61.74
64876;BME280;51369;49.862;9.908;2023-09-19T09:11:40;98195.69;;;20.25;60.98
64876;BME280;51369;49.862;9.908;2023-09-19T09:14:06;98199.16;;;20.27;61.13
64876;BME280;51369;49.862;9.908;2023-09-19T09:16:35;98190.53;;;20.31;61.21
64876;BME280;51369;49.862;9.908;2023-09-19T09:19:01;98197.63;;;20.34;60.64
64876;BME280;51369;49.862;9.908;2023-09-19T09:21:27;98207.25;;;20.39;60.30
64876;BME280;51369;49.862;9.908;2023-09-19T09:23:53;98204.25;;;20.42;60.53
64876;BME280;51369;49.862;9.908;2023-09-19T09:26:42;98204.84;;;20.46;59.85
64876;BME280;51369;49.862;9.908;2023-09-19T09:29:08;98213.41;;;20.53;59.24
64876;BME280;51369;49.862;9.908;2023-09-19T09:31:33;98212.16;;;20.57;59.58
64876;BME280;51369;49.862;9.908;2023-09-19T09:33:58;98205.28;;;20.62;58.82
64876;BME280;51369;49.862;9.908;2023-09-19T09:36:38;98204.13;;;20.65;58.93
64876;BME280;51369;49.862;9.908;2023-09-19T09:39:05;98210.84;;;20.72;59.22
64876;BME280;51369;49.862;9.908;2023-09-19T09:41:44;98222.41;;;20.75;58.77
64876;BME280;51369;49.862;9.908;2023-09-19T09:44:16;98216.66;;;20.78;57.35
64876;BME280;51369;49.862;9.908;2023-09-19T09:46:46;98226.94;;;20.86;57.65
64876;BME280;51369;49.862;9.908;2023-09-19T09:49:22;98217.69;;;20.87;57.98
64876;BME280;51369;49.862;9.908;2023-09-19T09:54:29;98212.28;;;20.97;56.05
64876;BME280;51369;49.862;9.908;2023-09-19T09:57:10;98221.44;;;21.07;57.48
64876;BME280;51369;49.862;9.908;2023-09-19T09:59:55;98220.63;;;21.16;57.32
64876;BME280;51369;49.862;9.908;2023-09-19T10:02:28;98219.84;;;21.25;56.62
64876;BME280;51369;49.862;9.908;2023-09-19T10:05:20;98212.06;;;21.30;56.16
64876;BME280;51369;49.862;9.908;2023-09-19T10:07:46;98209.25;;;21.41;56.08
64876;BME280;51369;49.862;9.908;2023-09-19T10:10:36;98200.47;;;21.48;54.51
64876;BME280;51369;49.862;9.908;2023-09-19T10:13:09;98193.72;;;21.61;54.33
64876;BME280;51369;49.862;9.908;2023-09-19T10:15:39;98209.22;;;21.72;54.10
64876;BME280;51369;49.862;9.908;2023-09-19T10:18:12;98215.63;;;21.82;55.60
64876;BME280;51369;49.862;9.908;2023-09-19T10:20:46;98207.41;;;21.92;55.90
64876;BME280;51369;49.862;9.908;2023-09-19T10:23:14;98207.00;;;21.96;53.99
64876;BME280;51369;49.862;9.908;2023-09-19T10:25:48;98200.69;;;22.05;54.90
64876;BME280;51369;49.862;9.908;2023-09-19T10:28:17;98200.41;;;22.08;52.60
64876;BME280;51369;49.862;9.908;2023-09-19T10:30:47;98200.69;;;22.15;52.41
64876;BME280;51369;49.862;9.908;2023-09-19T10:33:16;98207.94;;;22.26;53.28
64876;BME280;51369;49.862;9.908;2023-09-19T10:35:44;98205.22;;;22.35;52.09
64876;BME280;51369;49.862;9.908;2023-09-19T10:38:11;98192.19;;;22.47;53.33
64876;BME280;51369;49.862;9.908;2023-09-19T10:40:37;98203.75;;;22.60;53.02
64876;BME280;51369;49.862;9.908;2023-09-19T10:43:06;98197.38;;;22.69;51.39
64876;BME280;51369;49.862;9.908;2023-09-19T10:45:33;98198.25;;;22.80;52.39
64876;BME280;51369;49.862;9.908;2023-09-19T10:48:02;98193.91;;;22.87;50.25
64876;BME280;51369;49.862;9.908;2023-09-19T10:53:27;98199.69;;;23.03;51.46
64876;BME280;51369;49.862;9.908;2023-09-19T10:55:57;98206.34;;;23.10;50.98
64876;BME280;51369;49.862;9.908;2023-09-19T10:58:29;98208.19;;;23.19;51.14
64876;BME280;51369;49.862;9.908;2023-09-19T11:03:22;98209.59;;;23.43;52.59
64876;BME280;51369;49.862;9.908;2023-09-19T11:06:06;98207.41;;;23.46;50.92
64876;BME280;51369;49.862;9.908;2023-09-19T11:16:40;98200.31;;;23.81;49.96
64876;BME280;51369;49.862;9.908;2023-09-19T11:25:41;98205.31;;;23.95;48.58
64876;BME280;51369;49.862;9.908;2023-09-19T11:30:39;98195.25;;;24.04;49.66
64876;BME280;51369;49.862;9.908;2023-09-19T11:33:26;98206.28;;;24.04;48.73
64876;BME280;51369;49.862;9.908;2023-09-19T11:36:11;98191.28;;;23.88;47.87
64876;BME280;51369;49.862;9.908;2023-09-19T11:46:12;98186.13;;;23.76;50.30
64876;BME280;51369;49.862;9.908;2023-09-19T11:48:43;98194.66;;;23.82;50.44
64876;BME280;51369;49.862;9.908;2023-09-19T11:51:14;98183.72;;;23.90;50.54
64876;BME280;51369;49.862;9.908;2023-09-19T11:53:53;98188.56;;;24.06;50.01
64876;BME280;51369;49.862;9.908;2023-09-19T11:56:20;98180.88;;;24.27;49.31
64876;BME280;51369;49.862;9.908;2023-09-19T11:58:49;98177.50;;;24.51;49.33
64876;BME280;51369;49.862;9.908;2023-09-19T12:01:29;98188.16;;;24.64;48.14
64876;BME280;51369;49.862;9.908;2023-09-19T12:03:57;98182.22;;;24.77;48.21
64876;BME280;51369;49.862;9.908;2023-09-19T12:06:24;98175.75;;;24.86;48.64
64876;BME280;51369;49.862;9.908;2023-09-19T12:08:51;98167.53;;;24.94;45.93
64876;BME280;51369;49.862;9.908;2023-09-19T12:11:19;98167.28;;;25.05;47.14
64876;BME280;51369;49.862;9.908;2023-09-19T12:13:47;98163.56;;;25.14;47.18
64876;BME280;51369;49.862;9.908;2023-09-19T12:16:18;98172.44;;;25.26;49.00
64876;BME280;51369;49.862;9.908;2023-09-19T12:18:47;98161.44;;;25.34;47.46
64876;BME280;51369;49.862;9.908;2023-09-19T12:21:41;98158.34;;;25.37;45.45
64876;BME280;51369;49.862;9.908;2023-09-19T12:24:15;98161.31;;;25.44;44.87
64876;BME280;51369;49.862;9.908;2023-09-19T12:26:46;98158.09;;;25.56;46.29
64876;BME280;51369;49.862;9.908;2023-09-19T12:29:20;98159.75;;;25.67;44.58
64876;BME280;51369;49.862;9.908;2023-09-19T12:31:54;98164.97;;;25.78;44.92
64876;BME280;51369;49.862;9.908;2023-09-19T12:34:30;98157.91;;;25.84;44.72
64876;BME280;51369;49.862;9.908;2023-09-19T12:37:10;98162.41;;;25.85;45.51
64876;BME280;51369;49.862;9.908;2023-09-19T12:39:43;98160.28;;;25.71;44.10
64876;BME280;51369;49.862;9.908;2023-09-19T12:42:12;98159.84;;;25.57;44.32
64876;BME280;51369;49.862;9.908;2023-09-19T12:44:46;98157.38;;;25.46;46.14
64876;BME280;51369;49.862;9.908;2023-09-19T12:47:14;98155.63;;;25.45;46.12
64876;BME280;51369;49.862;9.908;2023-09-19T12:52:36;98151.00;;;25.54;45.61
64876;BME280;51369;49.862;9.908;2023-09-19T12:55:01;98151.50;;;25.49;46.89
64876;BME280;51369;49.862;9.908;2023-09-19T12:57:27;98155.31;;;25.48;47.22
64876;BME280;51369;49.862;9.908;2023-09-19T12:59:54;98148.78;;;25.57;46.82
64876;BME280;51369;49.862;9.908;2023-09-19T13:02:20;98153.56;;;25.73;47.04
64876;BME280;51369;49.862;9.908;2023-09-19T13:04:52;98139.97;;;25.88;46.28
64876;BME280;51369;49.862;9.908;2023-09-19T13:07:41;98144.16;;;26.00;44.97
64876;BME280;51369;49.862;9.908;2023-09-19T13:10:09;98143.81;;;26.19;45.62
64876;BME280;51369;49.862;9.908;2023-09-19T13:12:37;98148.03;;;26.32;45.42
64876;BME280;51369;49.862;9.908;2023-09-19T13:15:15;98143.56;;;26.47;44.75
64876;BME280;51369;49.862;9.908;2023-09-19T13:17:49;98138.56;;;26.58;45.42
64876;BME280;51369;49.862;9.908;2023-09-19T13:20:22;98139.41;;;26.59;45.74
64876;BME280;51369;49.862;9.908;2023-09-19T13:22:53;98139.59;;;26.66;47.42
64876;BME280;51369;49.862;9.908;2023-09-19T13:25:21;98146.88;;;26.67;45.97
64876;BME280;51369;49.862;9.908;2023-09-19T13:27:49;98126.25;;;26.61;44.79
64876;BME280;51369;49.862;9.908;2023-09-19T13:30:17;98133.19;;;26.57;44.96
64876;BME280;51369;49.862;9.908;2023-09-19T13:32:43;98132.50;;;26.55;45.98
64876;BME280;51369;49.862;9.908;2023-09-19T13:35:09;98142.69;;;26.46;47.56
64876;BME280;51369;49.862;9.908;2023-09-19T13:37:37;98140.63;;;26.40;47.06
64876;BME280;51369;49.862;9.908;2023-09-19T13:40:10;98137.50;;;26.35;45.64
64876;BME280;51369;49.862;9.908;2023-09-19T13:42:36;98135.59;;;26.36;44.59
64876;BME280;51369;49.862;9.908;2023-09-19T13:45:05;98124.69;;;26.34;43.49
64876;BME280;51369;49.862;9.908;2023-09-19T13:47:31;98143.66;;;26.29;46.13
64876;BME280;51369;49.862;9.908;2023-09-19T13:50:01;98134.81;;;26.17;45.92
64876;BME280;51369;49.862;9.908;2023-09-19T13:52:26;98112.34;;;26.12;46.22
64876;BME280;51369;49.862;9.908;2023-09-19T13:54:54;98119.44;;;26.15;43.62